Time;durP1;ratioP1;P1;durP2;ratioP2;P2;SDS_P1;SDS_P2;PMS_P1;PMS_P2;Temp;Humidity;BMP_temperature;BMP_pressure;BME280_temperature;BME280_humidity;BME280_pressure;Samples;Min_cycle;Max_cycle;Signal;HPM_P1;HPM_P2
2023/03/28 00:02:14;;;;;;;;;;;;;;;9.44;28.53;100068.34;5092070;28;19920;-80
2023/03/28 00:04:40;;;;;;;;;;;;;;;9.34;30.55;100077.13;5084222;28;19982;-80
2023/03/28 00:07:06;;;;;;;;;;;;;;;9.20;30.55;100075.56;5085478;28;20344;-79
2023/03/28 00:09:31;;;;;;;;;;;;;;;8.82;32.72;100083.00;5084229;28;19999;-80
2023/03/28 00:11:57;;;;;;;;;;;;;;;8.69;33.11;100082.28;5067574;28;19973;-79
2023/03/28 00:14:23;;;;;;;;;;;;;;;8.58;33.82;100080.47;5084489;28;19928;-77
2023/03/28 00:16:49;;;;;;;;;;;;;;;8.61;33.54;100088.97;5087383;28;19959;-78
2023/03/28 00:19:17;;;;;;;;;;;;;;;8.62;33.61;100093.28;5083588;28;20288;-77
2023/03/28 00:21:45;;;;;;;;;;;;;;;8.50;33.83;100096.84;5083175;28;19928;-78
2023/03/28 00:24:12;;;;;;;;;;;;;;;8.55;33.63;100105.22;5091241;28;19931;-79
2023/03/28 00:26:38;;;;;;;;;;;;;;;8.55;33.57;100114.88;5086738;28;20449;-79
2023/03/28 00:29:05;;;;;;;;;;;;;;;8.49;35.31;100116.19;5083182;28;19963;-78
2023/03/28 00:31:33;;;;;;;;;;;;;;;8.52;35.43;100110.72;5083697;28;20022;-78
2023/03/28 00:33:59;;;;;;;;;;;;;;;8.47;35.62;100115.50;5084794;28;20347;-79
2023/03/28 00:36:28;;;;;;;;;;;;;;;8.42;35.01;100125.53;5087672;28;19920;-82
2023/03/28 00:38:56;;;;;;;;;;;;;;;8.29;35.37;100124.72;5083080;28;19920;-82
2023/03/28 00:41:22;;;;;;;;;;;;;;;8.03;36.19;100138.94;5069285;28;19920;-81
2023/03/28 00:43:49;;;;;;;;;;;;;;;7.94;36.45;100137.00;5086526;28;20057;-81
2023/03/28 00:46:19;;;;;;;;;;;;;;;7.90;37.19;100132.91;5068269;28;19926;-81
2023/03/28 00:48:50;;;;;;;;;;;;;;;7.80;37.60;100144.09;5083987;28;19916;-81
2023/03/28 00:51:17;;;;;;;;;;;;;;;7.62;38.70;100128.81;5083892;28;19920;-81
2023/03/28 00:53:43;;;;;;;;;;;;;;;7.50;38.21;100142.81;5083931;28;20015;-81
2023/03/28 00:56:10;;;;;;;;;;;;;;;7.44;37.56;100143.25;5067183;28;20006;-82
2023/03/28 00:58:40;;;;;;;;;;;;;;;7.37;38.19;100148.09;5056051;28;20034;-81
2023/03/28 01:01:07;;;;;;;;;;;;;;;7.30;38.08;100146.88;5077058;28;20379;-81
2023/03/28 01:03:34;;;;;;;;;;;;;;;7.24;38.82;100152.53;5084370;28;19924;-81
2023/03/28 01:06:03;;;;;;;;;;;;;;;7.09;38.78;100150.97;5072690;28;20015;-81
2023/03/28 01:08:37;;;;;;;;;;;;;;;7.01;38.16;100148.06;5064554;28;19927;-81
2023/03/28 01:11:04;;;;;;;;;;;;;;;6.96;38.76;100150.97;5068678;28;20361;-80
2023/03/28 01:13:34;;;;;;;;;;;;;;;6.74;38.54;100159.47;5067349;28;20568;-80
2023/03/28 01:16:01;;;;;;;;;;;;;;;6.73;38.68;100165.66;5083953;28;19934;-81
2023/03/28 01:18:29;;;;;;;;;;;;;;;6.72;39.43;100169.22;5067778;28;20508;-81
2023/03/28 01:20:57;;;;;;;;;;;;;;;6.37;40.86;100170.72;5062392;28;20368;-83
2023/03/28 01:23:30;;;;;;;;;;;;;;;6.25;41.22;100179.41;5084719;28;20361;-83
2023/03/28 01:26:15;;;;;;;;;;;;;;;5.79;41.08;100179.72;5066135;28;20000;-81
2023/03/28 01:29:04;;;;;;;;;;;;;;;5.80;41.21;100184.00;5065450;28;19916;-83
2023/03/28 01:31:53;;;;;;;;;;;;;;;5.83;41.17;100193.47;5052062;28;19973;-83
2023/03/28 01:35:23;;;;;;;;;;;;;;;5.91;40.40;100197.31;5051449;28;19920;-80
2023/03/28 01:38:00;;;;;;;;;;;;;;;5.91;39.92;100207.78;5034885;28;19959;-78
2023/03/28 01:40:26;;;;;;;;;;;;;;;5.70;40.32;100206.50;5082431;28;20380;-79
2023/03/28 01:43:15;;;;;;;;;;;;;;;5.54;40.73;100208.34;5073482;28;20299;-80
2023/03/28 01:45:57;;;;;;;;;;;;;;;5.46;41.48;100214.09;5075865;28;19970;-79
2023/03/28 01:48:41;;;;;;;;;;;;;;;5.35;40.92;100220.00;5090336;28;19928;-79
2023/03/28 01:51:25;;;;;;;;;;;;;;;5.35;41.04;100220.00;5047142;28;19927;-81
2023/03/28 01:53:57;;;;;;;;;;;;;;;5.44;41.49;100213.34;5067216;28;20075;-82
2023/03/28 01:56:29;;;;;;;;;;;;;;;5.44;40.74;100212.50;5068042;28;19962;-79
2023/03/28 01:59:08;;;;;;;;;;;;;;;5.07;41.03;100221.72;5068055;28;20483;-80
2023/03/28 02:01:58;;;;;;;;;;;;;;;4.86;43.07;100219.47;5082081;28;19923;-81
2023/03/28 02:04:24;;;;;;;;;;;;;;;4.91;43.21;100216.56;5065674;28;19946;-81
2023/03/28 02:06:55;;;;;;;;;;;;;;;4.96;43.24;100211.91;5037982;28;19931;-81
2023/03/28 02:09:26;;;;;;;;;;;;;;;4.90;43.35;100212.28;5071144;28;19927;-77
2023/03/28 02:12:18;;;;;;;;;;;;;;;5.04;43.92;100211.47;5037470;28;19927;-81
2023/03/28 02:15:03;;;;;;;;;;;;;;;5.13;43.57;100213.50;5072622;28;19924;-82
2023/03/28 02:17:38;;;;;;;;;;;;;;;5.26;42.61;100220.53;5094265;28;19974;-82
2023/03/28 02:20:28;;;;;;;;;;;;;;;5.38;42.82;100218.09;5095434;28;19940;-81
2023/03/28 02:23:25;;;;;;;;;;;;;;;5.43;43.34;100224.72;5094796;28;19963;-81
2023/03/28 02:26:09;;;;;;;;;;;;;;;5.04;43.55;100225.38;5108277;28;19930;-81
2023/03/28 02:28:56;;;;;;;;;;;;;;;4.76;44.83;100220.94;5094016;28;19921;-79
2023/03/28 02:31:41;;;;;;;;;;;;;;;4.69;47.03;100229.22;5102386;28;19984;-79
2023/03/28 02:34:07;;;;;;;;;;;;;;;4.70;47.63;100233.53;5075751;28;20392;-81
2023/03/28 02:36:33;;;;;;;;;;;;;;;4.81;47.67;100223.28;5076739;28;19946;-81
2023/03/28 02:39:13;;;;;;;;;;;;;;;4.88;46.44;100220.22;5064274;28;19931;-82
2023/03/28 02:41:38;;;;;;;;;;;;;;;4.91;46.08;100229.66;5068637;28;19921;-80
2023/03/28 02:44:03;;;;;;;;;;;;;;;5.00;45.35;100225.66;5068266;28;20308;-82
2023/03/28 02:46:34;;;;;;;;;;;;;;;4.73;46.45;100223.72;5087692;28;20383;-82
2023/03/28 02:49:21;;;;;;;;;;;;;;;4.52;47.43;100233.66;5089396;28;19916;-80
2023/03/28 02:52:08;;;;;;;;;;;;;;;4.70;47.23;100230.91;5071831;28;20790;-81
2023/03/28 02:54:45;;;;;;;;;;;;;;;4.69;47.35;100229.22;5073736;28;19958;-80
2023/03/28 02:57:29;;;;;;;;;;;;;;;4.46;48.17;100234.03;5095693;28;20011;-80
2023/03/28 02:59:58;;;;;;;;;;;;;;;4.57;47.65;100236.00;5066367;28;19920;-79
2023/03/28 03:02:24;;;;;;;;;;;;;;;4.51;48.27;100233.75;5088705;28;19916;-77
2023/03/28 03:04:50;;;;;;;;;;;;;;;4.53;48.75;100235.34;5089694;28;19920;-79
2023/03/28 03:07:16;;;;;;;;;;;;;;;4.47;48.72;100233.09;5070007;28;19923;-80
2023/03/28 03:09:44;;;;;;;;;;;;;;;4.53;48.47;100237.97;5066540;28;19921;-82
2023/03/28 03:12:10;;;;;;;;;;;;;;;4.40;48.99;100234.38;5088600;28;19934;-82
2023/03/28 03:14:35;;;;;;;;;;;;;;;4.37;48.85;100237.13;5066742;28;19920;-85
2023/03/28 03:17:21;;;;;;;;;;;;;;;4.34;48.83;100237.31;5086630;28;19973;-84
2023/03/28 03:19:47;;;;;;;;;;;;;;;4.31;49.79;100240.09;5050081;28;19963;-83
2023/03/28 03:22:12;;;;;;;;;;;;;;;4.40;49.65;100247.44;5070525;28;19959;-82
2023/03/28 03:24:38;;;;;;;;;;;;;;;4.27;49.70;100243.81;5072896;28;19921;-84
2023/03/28 03:27:03;;;;;;;;;;;;;;;4.23;49.46;100252.78;5088364;28;19952;-82
2023/03/28 03:29:30;;;;;;;;;;;;;;;4.27;50.20;100256.03;5066552;28;19969;-81
2023/03/28 03:31:56;;;;;;;;;;;;;;;4.31;50.19;100258.38;5068345;28;20284;-82
2023/03/28 03:34:35;;;;;;;;;;;;;;;4.16;52.43;100259.25;5069578;28;19920;-81
2023/03/28 03:37:03;;;;;;;;;;;;;;;4.08;52.95;100259.66;5070503;28;20041;-80
2023/03/28 03:39:29;;;;;;;;;;;;;;;4.15;53.12;100270.63;5071653;28;19923;-83
2023/03/28 03:41:55;;;;;;;;;;;;;;;4.12;52.88;100265.59;5095766;28;19921;-82
2023/03/28 03:44:21;;;;;;;;;;;;;;;4.01;53.24;100267.91;5063928;28;20276;-82
2023/03/28 03:46:46;;;;;;;;;;;;;;;3.96;53.24;100259.50;5067299;28;19920;-83
2023/03/28 03:49:13;;;;;;;;;;;;;;;3.85;53.51;100267.06;5087083;28;19924;-83
2023/03/28 03:51:39;;;;;;;;;;;;;;;3.76;54.15;100272.81;5082779;28;20008;-83
2023/03/28 03:54:05;;;;;;;;;;;;;;;3.74;54.83;100272.03;5086901;28;19924;-82
2023/03/28 03:56:35;;;;;;;;;;;;;;;3.37;56.30;100266.16;5057653;28;19950;-83
2023/03/28 03:59:01;;;;;;;;;;;;;;;3.29;56.18;100273.53;5085925;28;19931;-82
2023/03/28 04:01:31;;;;;;;;;;;;;;;3.20;55.47;100274.84;5064909;28;20405;-81
2023/03/28 04:04:16;;;;;;;;;;;;;;;3.21;56.17;100275.69;5067941;28;19920;-81
2023/03/28 04:07:01;;;;;;;;;;;;;;;3.19;56.61;100272.31;5083473;28;19927;-81
2023/03/28 04:09:27;;;;;;;;;;;;;;;3.28;55.90;100277.06;5096586;28;20227;-82
2023/03/28 04:11:58;;;;;;;;;;;;;;;3.38;55.97;100278.28;5080514;28;20281;-80
2023/03/28 04:14:24;;;;;;;;;;;;;;;3.36;55.72;100274.88;5069041;28;19974;-80
2023/03/28 04:16:53;;;;;;;;;;;;;;;3.08;56.26;100274.63;5064647;28;20335;-80
2023/03/28 04:19:19;;;;;;;;;;;;;;;2.88;57.98;100279.13;5086397;28;19930;-80
2023/03/28 04:21:47;;;;;;;;;;;;;;;2.93;58.10;100275.41;5064389;28;20259;-80
2023/03/28 04:24:16;;;;;;;;;;;;;;;2.84;56.88;100282.78;5080495;28;20372;-80
2023/03/28 04:26:48;;;;;;;;;;;;;;;2.50;57.71;100276.69;5065932;28;19952;-79
2023/03/28 04:29:16;;;;;;;;;;;;;;;2.55;57.31;100285.13;5066827;28;19920;-79
2023/03/28 04:31:50;;;;;;;;;;;;;;;2.45;57.91;100280.38;5068519;28;19932;-79
2023/03/28 04:34:44;;;;;;;;;;;;;;;2.40;59.96;100281.50;5082723;28;19916;-78
2023/03/28 04:37:14;;;;;;;;;;;;;;;2.44;59.54;100283.03;5085643;28;19977;-77
2023/03/28 04:39:47;;;;;;;;;;;;;;;2.21;59.71;100291.09;5065392;28;19924;-78
2023/03/28 04:42:31;;;;;;;;;;;;;;;2.25;60.18;100292.63;5083135;28;19973;-78
2023/03/28 04:45:13;;;;;;;;;;;;;;;2.41;59.55;100296.22;5085575;28;20015;-79
2023/03/28 04:47:40;;;;;;;;;;;;;;;2.48;60.00;100295.00;5065937;28;19927;-79
2023/03/28 04:50:12;;;;;;;;;;;;;;;2.49;60.38;100296.69;5094044;28;19924;-78
2023/03/28 04:52:39;;;;;;;;;;;;;;;2.50;59.83;100303.59;5069657;28;19928;-77
2023/03/28 04:55:05;;;;;;;;;;;;;;;2.48;58.70;100297.59;5063542;28;19977;-78
2023/03/28 04:57:31;;;;;;;;;;;;;;;2.52;58.40;100301.75;5068906;28;20007;-77
2023/03/28 05:00:06;;;;;;;;;;;;;;;2.28;60.01;100302.94;5065981;28;19939;-79
2023/03/28 05:02:53;;;;;;;;;;;;;;;2.08;61.53;100310.81;5079822;28;19973;-79
2023/03/28 05:05:20;;;;;;;;;;;;;;;1.89;63.13;100311.66;5064907;28;19924;-79
2023/03/28 05:07:46;;;;;;;;;;;;;;;1.91;62.75;100311.59;5066092;28;20367;-78
2023/03/28 05:10:17;;;;;;;;;;;;;;;2.00;61.97;100325.00;5049467;28;19935;-79
2023/03/28 05:12:42;;;;;;;;;;;;;;;1.80;63.73;100319.88;5080741;28;20269;-79
2023/03/28 05:15:08;;;;;;;;;;;;;;;1.84;63.59;100318.81;5066305;28;20026;-79
2023/03/28 05:17:49;;;;;;;;;;;;;;;1.85;62.65;100323.13;5066206;28;19931;-78
2023/03/28 05:20:22;;;;;;;;;;;;;;;1.99;61.94;100328.56;5067450;28;19920;-78
2023/03/28 05:22:52;;;;;;;;;;;;;;;2.00;61.80;100330.22;5063921;28;19957;-77
2023/03/28 05:25:18;;;;;;;;;;;;;;;2.19;61.33;100334.59;5065630;28;20123;-79
2023/03/28 05:27:44;;;;;;;;;;;;;;;2.25;61.79;100349.94;5094581;28;19920;-77
2023/03/28 05:30:10;;;;;;;;;;;;;;;2.27;60.62;100348.09;5066790;28;20413;-77
2023/03/28 05:32:39;;;;;;;;;;;;;;;1.87;61.17;100355.13;5063342;28;19930;-78
2023/03/28 05:35:09;;;;;;;;;;;;;;;1.96;61.38;100354.72;5064094;28;19920;-77
2023/03/28 05:37:35;;;;;;;;;;;;;;;2.03;61.57;100361.34;5067006;28;19926;-75
2023/03/28 05:40:01;;;;;;;;;;;;;;;2.07;62.86;100362.03;4714116;28;10000466;-76
2023/03/28 05:42:26;;;;;;;;;;;;;;;1.72;63.06;100360.16;5078390;28;19920;-75
2023/03/28 05:44:52;;;;;;;;;;;;;;;1.66;64.15;100361.28;5082068;28;19949;-75
2023/03/28 05:47:20;;;;;;;;;;;;;;;1.67;65.68;100357.75;5079397;28;20011;-74
2023/03/28 05:49:46;;;;;;;;;;;;;;;1.87;64.93;100364.69;5061236;28;20405;-75
2023/03/28 05:52:11;;;;;;;;;;;;;;;2.09;64.44;100374.97;5082117;28;20000;-74
2023/03/28 05:54:38;;;;;;;;;;;;;;;2.14;63.24;100373.00;4365648;28;10000576;-75
2023/03/28 05:57:03;;;;;;;;;;;;;;;1.99;63.87;100379.78;5063662;28;19967;-76
2023/03/28 05:59:28;;;;;;;;;;;;;;;1.98;63.62;100389.34;5064354;28;19959;-76
2023/03/28 06:01:54;;;;;;;;;;;;;;;1.98;64.15;100389.34;5068588;28;19923;-75
2023/03/28 06:04:21;;;;;;;;;;;;;;;2.12;62.89;100395.69;5064793;28;19924;-75
2023/03/28 06:06:48;;;;;;;;;;;;;;;2.10;63.32;100394.91;5065655;28;19963;-77
2023/03/28 06:09:17;;;;;;;;;;;;;;;2.19;63.04;100389.25;5095875;28;20395;-76
2023/03/28 06:11:55;;;;;;;;;;;;;;;2.36;61.96;100395.41;5062408;28;19946;-78
2023/03/28 06:14:20;;;;;;;;;;;;;;;2.53;61.51;100391.19;5082665;28;19924;-77
2023/03/28 06:16:46;;;;;;;;;;;;;;;2.63;60.55;100403.69;5066436;28;19920;-78
2023/03/28 06:19:12;;;;;;;;;;;;;;;2.51;60.94;100406.88;5065578;28;19916;-77
2023/03/28 06:21:37;;;;;;;;;;;;;;;2.52;60.45;100408.56;5066233;28;19928;-78
2023/03/28 06:24:05;;;;;;;;;;;;;;;2.28;61.16;100405.34;5080484;28;20252;-77
2023/03/28 06:26:35;;;;;;;;;;;;;;;2.38;62.06;100405.75;5065899;28;19924;-76
2023/03/28 06:29:01;;;;;;;;;;;;;;;2.57;61.01;100409.19;5062976;28;20046;-77
2023/03/28 06:31:40;;;;;;;;;;;;;;;2.69;60.67;100411.22;5048334;28;19955;-77
2023/03/28 06:34:06;;;;;;;;;;;;;;;2.79;58.51;100414.25;5083219;28;19977;-77
2023/03/28 06:36:32;;;;;;;;;;;;;;;2.91;57.80;100408.44;5085507;28;20015;-78
2023/03/28 06:39:00;;;;;;;;;;;;;;;2.91;57.46;100412.81;5063096;28;19952;-77
2023/03/28 06:41:27;;;;;;;;;;;;;;;2.98;57.33;100411.59;5064124;28;19925;-77
2023/03/28 06:43:52;;;;;;;;;;;;;;;3.13;56.82;100416.91;5046493;28;19969;-76
2023/03/28 06:46:47;;;;;;;;;;;;;;;3.10;56.51;100414.47;5068719;28;19972;-77
2023/03/28 06:49:12;;;;;;;;;;;;;;;3.02;56.82;100416.59;5080903;28;19962;-76
2023/03/28 06:51:57;;;;;;;;;;;;;;;3.32;56.28;100414.25;5077122;28;20061;-77
2023/03/28 06:54:23;;;;;;;;;;;;;;;3.27;55.32;100416.22;5066555;28;19958;-76
2023/03/28 06:56:48;;;;;;;;;;;;;;;3.45;55.11;100417.09;5066605;28;19975;-74
2023/03/28 06:59:14;;;;;;;;;;;;;;;3.67;54.95;100415.91;5086354;28;19921;-76
2023/03/28 07:01:39;;;;;;;;;;;;;;;3.85;54.20;100423.72;5085737;28;20352;-75
2023/03/28 07:04:09;;;;;;;;;;;;;;;3.97;53.80;100412.66;5056456;28;19924;-75
2023/03/28 07:06:36;;;;;;;;;;;;;;;3.93;53.53;100421.56;5069448;28;19920;-75
2023/03/28 07:09:01;;;;;;;;;;;;;;;3.94;53.05;100423.25;5069311;28;20395;-74
2023/03/28 07:11:40;;;;;;;;;;;;;;;4.13;52.43;100424.81;5066586;28;20380;-73
2023/03/28 07:14:05;;;;;;;;;;;;;;;4.20;52.57;100438.41;5064793;28;19927;-75
2023/03/28 07:16:31;;;;;;;;;;;;;;;4.29;51.73;100437.94;5086477;28;19924;-75
2023/03/28 07:18:56;;;;;;;;;;;;;;;4.36;51.42;100441.88;5068240;28;20023;-76
2023/03/28 07:21:29;;;;;;;;;;;;;;;4.64;50.57;100443.88;5068866;28;19934;-74
2023/03/28 07:23:57;;;;;;;;;;;;;;;4.92;49.71;100449.25;5085215;28;19935;-75
2023/03/28 07:26:26;;;;;;;;;;;;;;;5.21;48.77;100447.63;5064620;28;19924;-74
2023/03/28 07:28:53;;;;;;;;;;;;;;;5.40;48.57;100451.78;5068004;28;19985;-78
2023/03/28 07:31:19;;;;;;;;;;;;;;;5.37;47.70;100452.81;5085441;28;19924;-75
2023/03/28 07:33:47;;;;;;;;;;;;;;;5.55;47.08;100451.75;5086338;28;19928;-75
2023/03/28 07:36:17;;;;;;;;;;;;;;;5.67;46.98;100450.19;5086534;28;19935;-78
2023/03/28 07:38:47;;;;;;;;;;;;;;;5.72;46.00;100448.13;5066798;28;19920;-75
2023/03/28 07:41:13;;;;;;;;;;;;;;;5.84;45.37;100457.88;5068677;28;20367;-76
2023/03/28 07:43:38;;;;;;;;;;;;;;;6.06;45.63;100458.34;5097537;28;20384;-75
2023/03/28 07:46:08;;;;;;;;;;;;;;;6.20;45.80;100467.13;5085975;28;19939;-76
2023/03/28 07:48:35;;;;;;;;;;;;;;;6.37;45.87;100461.69;5065213;28;19920;-75
2023/03/28 07:51:01;;;;;;;;;;;;;;;6.54;45.92;100464.97;5066638;28;20448;-75
2023/03/28 07:53:27;;;;;;;;;;;;;;;6.58;46.89;100470.88;5082085;28;20011;-75
2023/03/28 07:55:53;;;;;;;;;;;;;;;6.58;48.02;100476.13;5067806;28;20222;-76
2023/03/28 07:58:19;;;;;;;;;;;;;;;6.73;47.46;100475.16;5063394;28;19924;-76
2023/03/28 08:00:45;;;;;;;;;;;;;;;6.71;49.02;100477.06;5051594;28;20353;-77
2023/03/28 08:03:46;;;;;;;;;;;;;;;6.85;48.16;100478.78;5071328;28;19924;-76
2023/03/28 08:06:14;;;;;;;;;;;;;;;6.89;48.10;100475.88;5079269;28;20366;-77
2023/03/28 08:08:40;;;;;;;;;;;;;;;7.14;48.28;100479.56;5061048;28;19916;-76
2023/03/28 08:11:15;;;;;;;;;;;;;;;7.34;49.31;100477.34;5064350;28;20822;-77
2023/03/28 08:13:41;;;;;;;;;;;;;;;7.31;49.21;100474.91;5087079;28;20104;-77
2023/03/28 08:16:15;;;;;;;;;;;;;;;7.40;48.65;100476.94;5068592;28;19963;-76
2023/03/28 08:18:41;;;;;;;;;;;;;;;7.58;48.82;100479.31;5066987;28;20371;-75
2023/03/28 08:21:06;;;;;;;;;;;;;;;7.73;48.56;100484.38;5081724;28;20254;-75
2023/03/28 08:23:32;;;;;;;;;;;;;;;7.90;46.92;100490.28;5065804;28;20441;-76
2023/03/28 08:26:13;;;;;;;;;;;;;;;8.09;46.56;100486.31;5067734;28;20023;-76
2023/03/28 08:28:42;;;;;;;;;;;;;;;8.13;45.65;100486.94;5085167;28;19921;-75
2023/03/28 08:31:15;;;;;;;;;;;;;;;8.30;45.86;100484.06;5064841;28;20371;-76
2023/03/28 08:33:44;;;;;;;;;;;;;;;8.44;44.74;100485.72;5052028;28;19927;-75
2023/03/28 08:36:13;;;;;;;;;;;;;;;8.49;41.76;100487.06;5063384;28;19973;-76
2023/03/28 08:38:42;;;;;;;;;;;;;;;8.56;40.22;100490.13;5067327;28;19924;-75
2023/03/28 08:41:14;;;;;;;;;;;;;;;8.72;40.24;100480.19;5082807;28;19920;-76
2023/03/28 08:43:53;;;;;;;;;;;;;;;8.95;40.68;100481.22;5069029;28;19927;-76
2023/03/28 08:46:20;;;;;;;;;;;;;;;9.08;39.80;100486.41;5068412;28;19925;-76
2023/03/28 08:48:47;;;;;;;;;;;;;;;9.08;36.57;100482.00;5063079;28;20383;-76
2023/03/28 08:51:15;;;;;;;;;;;;;;;9.22;36.27;100487.09;5067070;28;20334;-76
2023/03/28 08:53:44;;;;;;;;;;;;;;;9.24;34.87;100487.84;5063976;28;19924;-76
2023/03/28 08:56:13;;;;;;;;;;;;;;;9.34;35.66;100488.00;5066729;28;19975;-76
2023/03/28 08:58:54;;;;;;;;;;;;;;;9.51;35.25;100481.50;5080993;28;19924;-76
2023/03/28 09:01:22;;;;;;;;;;;;;;;9.67;35.34;100485.50;5079482;28;19950;-76
2023/03/28 09:03:48;;;;;;;;;;;;;;;9.56;34.85;100482.00;5098085;28;20023;-76
2023/03/28 09:06:23;;;;;;;;;;;;;;;9.77;34.88;100481.25;5062733;28;19969;-76
2023/03/28 09:08:55;;;;;;;;;;;;;;;9.91;34.02;100485.47;5065648;28;20296;-76
2023/03/28 09:11:32;;;;;;;;;;;;;;;10.03;32.52;100487.16;5063963;28;19920;-77
2023/03/28 09:14:01;;;;;;;;;;;;;;;10.19;31.54;100487.72;5064706;28;19924;-76
2023/03/28 09:16:46;;;;;;;;;;;;;;;10.23;28.90;100494.44;5079868;28;19955;-76
2023/03/28 09:19:16;;;;;;;;;;;;;;;10.34;29.50;100490.97;5067218;28;19959;-76
2023/03/28 09:22:01;;;;;;;;;;;;;;;10.39;29.32;100493.25;5064184;28;20120;-76
2023/03/28 09:24:27;;;;;;;;;;;;;;;10.51;30.21;100492.31;5063811;28;19985;-75
2023/03/28 09:27:16;;;;;;;;;;;;;;;10.66;30.36;100491.13;5063408;28;19920;-75
2023/03/28 09:29:45;;;;;;;;;;;;;;;10.78;29.73;100500.69;5063529;28;20390;-78
2023/03/28 09:32:19;;;;;;;;;;;;;;;10.85;28.46;100501.88;5063155;28;19920;-78
2023/03/28 09:34:47;;;;;;;;;;;;;;;10.92;27.97;100495.16;5046758;28;19916;-78
2023/03/28 09:37:37;;;;;;;;;;;;;;;11.00;27.15;100498.03;5065732;28;19920;-77
2023/03/28 09:40:13;;;;;;;;;;;;;;;11.09;27.75;100492.00;5067041;28;20321;-77
2023/03/28 09:43:10;;;;;;;;;;;;;;;11.21;27.83;100502.56;5092704;28;19920;-77
2023/03/28 09:46:01;;;;;;;;;;;;;;;11.25;27.67;100501.38;5063300;28;19920;-77
2023/03/28 09:48:50;;;;;;;;;;;;;;;11.33;27.44;100504.19;5060250;28;19921;-76
2023/03/28 09:51:19;;;;;;;;;;;;;;;11.36;27.58;100496.03;5065934;28;20304;-75
2023/03/28 09:53:45;;;;;;;;;;;;;;;11.44;26.80;100504.16;5062584;28;20380;-76
2023/03/28 09:56:24;;;;;;;;;;;;;;;11.54;26.55;100498.97;5083711;28;19960;-76
2023/03/28 09:58:52;;;;;;;;;;;;;;;11.64;26.18;100500.75;5064008;28;19916;-76
2023/03/28 10:01:45;;;;;;;;;;;;;;;11.75;26.06;100492.78;5062323;28;20311;-78
2023/03/28 10:04:37;;;;;;;;;;;;;;;11.86;26.46;100499.81;5078552;28;19945;-77
2023/03/28 10:07:09;;;;;;;;;;;;;;;11.87;25.35;100501.50;5082398;28;19920;-77
2023/03/28 10:09:52;;;;;;;;;;;;;;;11.88;25.37;100506.66;5078488;28;19934;-76
2023/03/28 10:12:24;;;;;;;;;;;;;;;11.88;25.89;100508.47;5065675;28;20384;-77
2023/03/28 10:14:49;;;;;;;;;;;;;;;11.92;25.91;100503.75;5064063;22;20057;-79
2023/03/28 10:17:34;;;;;;;;;;;;;;;11.98;25.93;100509.38;5064845;28;19940;-81
2023/03/28 10:20:09;;;;;;;;;;;;;;;12.06;25.88;100514.03;5057682;28;19927;-78
2023/03/28 10:22:37;;;;;;;;;;;;;;;12.06;25.30;100516.69;5062350;28;19931;-79
2023/03/28 10:25:04;;;;;;;;;;;;;;;12.04;25.96;100513.31;5059196;28;19966;-80
2023/03/28 10:27:31;;;;;;;;;;;;;;;12.09;26.40;100522.53;5060862;28;20558;-82
2023/03/28 10:30:05;;;;;;;;;;;;;;;12.05;25.86;100521.13;5062187;28;19921;-79
2023/03/28 10:32:31;;;;;;;;;;;;;;;12.00;25.80;100512.75;5064152;28;19970;-80
2023/03/28 10:35:26;;;;;;;;;;;;;;;12.03;25.85;100503.69;5062828;28;20033;-80
2023/03/28 10:38:04;;;;;;;;;;;;;;;12.04;25.98;100502.72;5061827;28;20347;-78
2023/03/28 10:40:58;;;;;;;;;;;;;;;12.10;26.02;100503.06;5064074;28;19927;-79
2023/03/28 10:43:41;;;;;;;;;;;;;;;12.11;24.90;100498.59;5063855;28;20364;-81
2023/03/28 10:46:20;;;;;;;;;;;;;;;12.17;25.07;100500.72;5064417;28;19928;-82
2023/03/28 10:49:16;;;;;;;;;;;;;;;12.27;24.94;100499.81;5066408;28;19920;-81
2023/03/28 10:51:46;;;;;;;;;;;;;;;12.34;24.92;100499.28;5065189;28;19999;-81
2023/03/28 10:54:47;;;;;;;;;;;;;;;12.35;24.31;100496.53;5062052;28;20409;-81
2023/03/28 10:57:49;;;;;;;;;;;;;;;12.39;23.86;100497.94;5023807;28;19927;-82
2023/03/28 11:00:24;;;;;;;;;;;;;;;12.48;24.12;100491.88;5058454;28;20031;-81
2023/03/28 11:03:10;;;;;;;;;;;;;;;12.53;23.57;100484.34;5064635;28;20323;-80
2023/03/28 11:05:47;;;;;;;;;;;;;;;12.58;22.76;100486.59;5064217;28;20387;-81
2023/03/28 11:08:36;;;;;;;;;;;;;;;12.66;21.94;100476.19;5060096;28;19960;-82
2023/03/28 11:11:15;;;;;;;;;;;;;;;12.68;22.66;100467.13;5065354;28;19920;-80
2023/03/28 11:13:53;;;;;;;;;;;;;;;12.61;22.60;100465.97;5060734;28;19991;-83
2023/03/28 11:16:31;;;;;;;;;;;;;;;12.66;22.54;100463.75;5050386;28;19952;-82
2023/03/28 11:19:28;;;;;;;;;;;;;;;12.72;22.80;100463.22;5062722;28;20393;-79
2023/03/28 11:22:03;;;;;;;;;;;;;;;12.78;22.82;100455.75;5070143;28;19987;-81
2023/03/28 11:24:38;;;;;;;;;;;;;;;12.87;22.84;100452.28;5068120;28;20376;-79
2023/03/28 11:27:18;;;;;;;;;;;;;;;12.96;23.14;100451.47;5067725;28;19924;-80
2023/03/28 11:29:56;;;;;;;;;;;;;;;13.04;22.80;100448.97;5070401;28;19920;-81
2023/03/28 11:32:50;;;;;;;;;;;;;;;13.00;22.17;100447.56;5068458;28;19928;-81
2023/03/28 11:35:15;;;;;;;;;;;;;;;13.08;22.51;100443.25;5058944;28;19925;-81
2023/03/28 11:37:46;;;;;;;;;;;;;;;13.10;22.34;100440.47;5068929;28;20303;-82
2023/03/28 11:40:12;;;;;;;;;;;;;;;13.18;22.24;100435.34;5068076;28;19955;-78
2023/03/28 11:42:53;;;;;;;;;;;;;;;13.36;22.89;100425.75;5069296;28;19920;-81
2023/03/28 11:45:23;;;;;;;;;;;;;;;13.60;22.57;100432.44;5065031;28;19947;-78
2023/03/28 11:48:07;;;;;;;;;;;;;;;13.72;21.84;100439.25;5070060;28;19963;-80
2023/03/28 11:50:39;;;;;;;;;;;;;;;13.91;22.37;100434.75;5051583;28;20272;-80
2023/03/28 11:53:17;;;;;;;;;;;;;;;14.03;21.94;100411.53;5063783;28;20387;-79
2023/03/28 11:56:05;;;;;;;;;;;;;;;14.23;22.08;100426.44;5054494;28;19951;-80
2023/03/28 11:58:57;;;;;;;;;;;;;;;14.16;22.24;100420.03;5060626;28;19920;-80
2023/03/28 12:01:26;;;;;;;;;;;;;;;14.18;22.12;100426.03;5065122;28;19930;-78
2023/03/28 12:04:00;;;;;;;;;;;;;;;14.20;22.22;100426.69;5065557;28;19966;-79
2023/03/28 12:06:30;;;;;;;;;;;;;;;14.10;22.70;100419.75;5064955;28;19924;-78
2023/03/28 12:08:58;;;;;;;;;;;;;;;14.18;22.93;100423.38;5066465;28;19970;-80
2023/03/28 12:11:32;;;;;;;;;;;;;;;14.32;22.60;100420.22;5062151;28;20299;-79
2023/03/28 12:14:05;;;;;;;;;;;;;;;14.40;22.19;100421.38;5063906;28;20357;-84
2023/03/28 12:16:36;;;;;;;;;;;;;;;14.56;22.51;100424.22;5061824;28;19924;-84
2023/03/28 12:19:04;;;;;;;;;;;;;;;14.73;22.12;100418.13;5078598;28;19973;-83
2023/03/28 12:21:41;;;;;;;;;;;;;;;14.97;22.83;100413.06;5082497;28;20380;-81
2023/03/28 12:24:12;;;;;;;;;;;;;;;14.91;21.97;100411.00;5076472;28;19986;-80
2023/03/28 12:26:50;;;;;;;;;;;;;;;14.91;22.44;100411.00;4732646;28;9999625;-82
2023/03/28 12:29:27;;;;;;;;;;;;;;;14.87;21.74;100414.13;5076153;28;19920;-82
2023/03/28 12:31:57;;;;;;;;;;;;;;;14.73;21.68;100418.13;5081752;28;20380;-81
2023/03/28 12:34:26;;;;;;;;;;;;;;;14.85;22.06;100411.63;4379408;28;10000669;-78
2023/03/28 12:37:16;;;;;;;;;;;;;;;15.21;22.20;100401.00;5099187;28;20025;-79
2023/03/28 12:40:14;;;;;;;;;;;;;;;15.49;21.70;100397.31;5102661;28;20268;-77
2023/03/28 12:42:44;;;;;;;;;;;;;;;15.74;22.25;100387.69;5050340;28;19950;-78
2023/03/28 12:45:19;;;;;;;;;;;;;;;15.86;21.54;100391.75;5082979;28;19959;-79
2023/03/28 12:47:49;;;;;;;;;;;;;;;15.77;21.48;100396.22;5114365;27;19986;-77
2023/03/28 12:50:19;;;;;;;;;;;;;;;15.80;21.25;100387.91;5068933;28;19919;-77
2023/03/28 12:52:45;;;;;;;;;;;;;;;15.95;21.35;100380.19;5080324;28;19924;-78
2023/03/28 12:55:24;;;;;;;;;;;;;;;15.92;20.50;100376.00;5082475;28;19920;-78
2023/03/28 12:57:53;;;;;;;;;;;;;;;15.93;21.03;100372.34;5079169;28;19920;-77
2023/03/28 13:00:46;;;;;;;;;;;;;;;16.17;21.54;100369.00;5083617;28;19927;-77
2023/03/28 13:03:47;;;;;;;;;;;;;;;16.40;21.15;100369.25;5068612;28;20018;-78
2023/03/28 13:06:33;;;;;;;;;;;;;;;16.51;21.06;100360.97;5079447;28;19988;-79
2023/03/28 13:09:17;;;;;;;;;;;;;;;16.66;20.42;100359.41;5099749;28;19927;-78
2023/03/28 13:11:50;;;;;;;;;;;;;;;16.90;20.14;100349.81;5102065;28;20287;-78
2023/03/28 13:14:28;;;;;;;;;;;;;;;17.04;20.04;100336.63;5098197;28;19924;-78